sensor_id;sensor_type;location;lat;lon;timestamp;P1;durP1;ratioP1;P2;durP2;ratioP2
46597;SDS011;32318;48.858;8.252;2023-03-01T00:07:57;24.92;;;9.43;;
46597;SDS011;32318;48.858;8.252;2023-03-01T00:15:58;28.10;;;9.95;;
46597;SDS011;32318;48.858;8.252;2023-03-01T00:23:58;27.80;;;7.45;;
46597;SDS011;32318;48.858;8.252;2023-03-01T00:31:59;27.08;;;10.57;;
46597;SDS011;32318;48.858;8.252;2023-03-01T00:39:59;18.20;;;6.47;;
46597;SDS011;32318;48.858;8.252;2023-03-01T00:47:59;21.88;;;7.57;;
46597;SDS011;32318;48.858;8.252;2023-03-01T00:56:00;10.30;;;5.57;;
46597;SDS011;32318;48.858;8.252;2023-03-01T01:04:04;22.08;;;8.80;;
46597;SDS011;32318;48.858;8.252;2023-03-01T01:12:09;13.98;;;6.15;;
46597;SDS011;32318;48.858;8.252;2023-03-01T01:20:09;19.17;;;7.40;;
46597;SDS011;32318;48.858;8.252;2023-03-01T01:28:10;23.88;;;9.85;;
46597;SDS011;32318;48.858;8.252;2023-03-01T01:36:10;19.13;;;7.35;;
46597;SDS011;32318;48.858;8.252;2023-03-01T01:44:13;19.33;;;7.22;;
46597;SDS011;32318;48.858;8.252;2023-03-01T01:52:26;15.80;;;6.88;;
46597;SDS011;32318;48.858;8.252;2023-03-01T02:00:29;24.92;;;7.00;;
46597;SDS011;32318;48.858;8.252;2023-03-01T02:08:31;11.75;;;4.75;;
46597;SDS011;32318;48.858;8.252;2023-03-01T02:16:33;10.38;;;4.43;;
46597;SDS011;32318;48.858;8.252;2023-03-01T02:33:02;10.65;;;5.25;;
46597;SDS011;32318;48.858;8.252;2023-03-01T02:41:04;39.08;;;9.02;;
46597;SDS011;32318;48.858;8.252;2023-03-01T02:49:40;36.22;;;12.15;;
46597;SDS011;32318;48.858;8.252;2023-03-01T02:57:36;30.45;;;11.13;;
46597;SDS011;32318;48.858;8.252;2023-03-01T03:05:39;20.35;;;8.60;;
46597;SDS011;32318;48.858;8.252;2023-03-01T03:13:39;29.88;;;9.00;;
46597;SDS011;32318;48.858;8.252;2023-03-01T03:21:47;18.65;;;7.88;;
46597;SDS011;32318;48.858;8.252;2023-03-01T03:29:49;26.33;;;10.10;;
46597;SDS011;32318;48.858;8.252;2023-03-01T03:37:50;17.70;;;7.13;;
46597;SDS011;32318;48.858;8.252;2023-03-01T03:46:03;14.75;;;6.57;;
46597;SDS011;32318;48.858;8.252;2023-03-01T03:54:05;19.98;;;8.27;;
46597;SDS011;32318;48.858;8.252;2023-03-01T04:02:05;27.83;;;9.88;;
46597;SDS011;32318;48.858;8.252;2023-03-01T04:10:09;17.83;;;8.18;;
46597;SDS011;32318;48.858;8.252;2023-03-01T04:18:12;34.80;;;12.02;;
46597;SDS011;32318;48.858;8.252;2023-03-01T04:26:14;24.08;;;6.93;;
46597;SDS011;32318;48.858;8.252;2023-03-01T04:34:14;17.77;;;8.38;;
46597;SDS011;32318;48.858;8.252;2023-03-01T04:42:15;26.00;;;8.88;;
46597;SDS011;32318;48.858;8.252;2023-03-01T04:50:16;25.05;;;10.60;;
46597;SDS011;32318;48.858;8.252;2023-03-01T04:58:17;26.95;;;10.77;;
46597;SDS011;32318;48.858;8.252;2023-03-01T05:06:18;31.13;;;10.60;;
46597;SDS011;32318;48.858;8.252;2023-03-01T05:14:19;15.10;;;6.93;;
46597;SDS011;32318;48.858;8.252;2023-03-01T05:22:19;22.30;;;8.93;;
46597;SDS011;32318;48.858;8.252;2023-03-01T05:30:19;30.40;;;11.43;;
46597;SDS011;32318;48.858;8.252;2023-03-01T05:38:20;31.33;;;13.20;;
46597;SDS011;32318;48.858;8.252;2023-03-01T05:46:20;21.75;;;6.53;;
46597;SDS011;32318;48.858;8.252;2023-03-01T05:54:23;35.28;;;12.88;;
46597;SDS011;32318;48.858;8.252;2023-03-01T06:02:23;73.68;;;11.70;;
46597;SDS011;32318;48.858;8.252;2023-03-01T06:10:23;21.63;;;8.60;;
46597;SDS011;32318;48.858;8.252;2023-03-01T06:18:25;34.83;;;13.40;;
46597;SDS011;32318;48.858;8.252;2023-03-01T06:26:25;44.55;;;14.80;;
46597;SDS011;32318;48.858;8.252;2023-03-01T06:34:25;34.92;;;11.45;;
46597;SDS011;32318;48.858;8.252;2023-03-01T06:42:26;16.08;;;6.75;;
46597;SDS011;32318;48.858;8.252;2023-03-01T06:50:26;18.63;;;5.95;;
46597;SDS011;32318;48.858;8.252;2023-03-01T06:58:26;18.17;;;5.80;;
46597;SDS011;32318;48.858;8.252;2023-03-01T07:06:27;10.15;;;3.83;;
46597;SDS011;32318;48.858;8.252;2023-03-01T07:14:27;24.65;;;9.15;;
46597;SDS011;32318;48.858;8.252;2023-03-01T07:22:27;12.27;;;4.95;;
46597;SDS011;32318;48.858;8.252;2023-03-01T07:30:28;31.33;;;7.63;;
46597;SDS011;32318;48.858;8.252;2023-03-01T07:38:28;20.77;;;7.80;;
46597;SDS011;32318;48.858;8.252;2023-03-01T07:46:29;18.52;;;7.63;;
46597;SDS011;32318;48.858;8.252;2023-03-01T07:54:29;14.57;;;7.85;;
46597;SDS011;32318;48.858;8.252;2023-03-01T08:02:30;12.90;;;6.38;;
46597;SDS011;32318;48.858;8.252;2023-03-01T08:10:30;33.58;;;11.88;;
46597;SDS011;32318;48.858;8.252;2023-03-01T08:18:31;22.02;;;9.63;;
46597;SDS011;32318;48.858;8.252;2023-03-01T08:26:31;22.17;;;9.07;;
46597;SDS011;32318;48.858;8.252;2023-03-01T08:34:32;37.15;;;11.63;;
46597;SDS011;32318;48.858;8.252;2023-03-01T08:42:38;17.70;;;7.03;;
46597;SDS011;32318;48.858;8.252;2023-03-01T08:50:38;46.35;;;13.48;;
46597;SDS011;32318;48.858;8.252;2023-03-01T08:58:38;32.25;;;11.25;;
46597;SDS011;32318;48.858;8.252;2023-03-01T09:06:42;44.03;;;16.85;;
46597;SDS011;32318;48.858;8.252;2023-03-01T09:14:42;28.75;;;11.18;;
46597;SDS011;32318;48.858;8.252;2023-03-01T09:22:42;42.88;;;11.40;;
46597;SDS011;32318;48.858;8.252;2023-03-01T09:30:43;29.42;;;9.43;;
46597;SDS011;32318;48.858;8.252;2023-03-01T09:38:46;38.80;;;14.52;;
46597;SDS011;32318;48.858;8.252;2023-03-01T09:46:46;22.48;;;9.50;;
46597;SDS011;32318;48.858;8.252;2023-03-01T09:54:48;26.00;;;8.15;;
46597;SDS011;32318;48.858;8.252;2023-03-01T10:11:02;30.10;;;10.45;;
46597;SDS011;32318;48.858;8.252;2023-03-01T10:19:04;47.17;;;18.23;;
46597;SDS011;32318;48.858;8.252;2023-03-01T10:27:34;31.53;;;12.10;;
46597;SDS011;32318;48.858;8.252;2023-03-01T10:35:37;46.17;;;16.42;;
46597;SDS011;32318;48.858;8.252;2023-03-01T10:43:43;21.42;;;8.25;;
46597;SDS011;32318;48.858;8.252;2023-03-01T10:51:47;52.80;;;18.08;;
46597;SDS011;32318;48.858;8.252;2023-03-01T11:00:00;37.67;;;13.98;;
46597;SDS011;32318;48.858;8.252;2023-03-01T11:08:13;44.58;;;15.65;;
46597;SDS011;32318;48.858;8.252;2023-03-01T11:16:13;38.97;;;14.18;;
46597;SDS011;32318;48.858;8.252;2023-03-01T11:24:14;29.63;;;10.80;;
46597;SDS011;32318;48.858;8.252;2023-03-01T11:32:17;18.23;;;6.90;;
46597;SDS011;32318;48.858;8.252;2023-03-01T11:40:25;18.42;;;7.38;;
46597;SDS011;32318;48.858;8.252;2023-03-01T11:57:00;32.58;;;12.45;;
46597;SDS011;32318;48.858;8.252;2023-03-01T12:38:45;46.80;;;17.30;;
46597;SDS011;32318;48.858;8.252;2023-03-01T12:54:53;39.63;;;15.80;;
46597;SDS011;32318;48.858;8.252;2023-03-01T13:11:17;39.55;;;15.07;;
46597;SDS011;32318;48.858;8.252;2023-03-01T13:19:21;31.35;;;10.63;;
46597;SDS011;32318;48.858;8.252;2023-03-01T13:27:23;25.67;;;11.93;;
46597;SDS011;32318;48.858;8.252;2023-03-01T13:43:43;34.03;;;9.75;;
46597;SDS011;32318;48.858;8.252;2023-03-01T13:51:46;28.20;;;10.77;;
46597;SDS011;32318;48.858;8.252;2023-03-01T13:59:48;40.35;;;14.80;;
46597;SDS011;32318;48.858;8.252;2023-03-01T14:07:50;36.08;;;15.02;;
46597;SDS011;32318;48.858;8.252;2023-03-01T14:24:24;31.00;;;11.52;;
46597;SDS011;32318;48.858;8.252;2023-03-01T14:32:26;36.05;;;12.93;;
46597;SDS011;32318;48.858;8.252;2023-03-01T14:40:29;40.17;;;16.63;;
46597;SDS011;32318;48.858;8.252;2023-03-01T14:48:32;34.95;;;15.25;;
46597;SDS011;32318;48.858;8.252;2023-03-01T14:56:42;35.95;;;13.20;;
46597;SDS011;32318;48.858;8.252;2023-03-01T15:04:48;38.92;;;14.20;;
46597;SDS011;32318;48.858;8.252;2023-03-01T15:12:51;37.13;;;19.17;;
46597;SDS011;32318;48.858;8.252;2023-03-01T15:20:53;47.15;;;15.80;;
46597;SDS011;32318;48.858;8.252;2023-03-01T15:28:54;25.75;;;9.95;;
46597;SDS011;32318;48.858;8.252;2023-03-01T15:37:01;28.05;;;12.68;;
46597;SDS011;32318;48.858;8.252;2023-03-01T15:45:20;38.95;;;15.82;;
46597;SDS011;32318;48.858;8.252;2023-03-01T15:53:27;32.33;;;12.23;;
46597;SDS011;32318;48.858;8.252;2023-03-01T16:01:28;36.30;;;15.35;;
46597;SDS011;32318;48.858;8.252;2023-03-01T16:09:29;27.63;;;11.95;;
46597;SDS011;32318;48.858;8.252;2023-03-01T16:17:29;34.05;;;12.82;;
46597;SDS011;32318;48.858;8.252;2023-03-01T16:25:33;41.05;;;17.33;;
46597;SDS011;32318;48.858;8.252;2023-03-01T16:33:35;42.85;;;17.20;;
46597;SDS011;32318;48.858;8.252;2023-03-01T16:41:36;45.25;;;17.48;;
46597;SDS011;32318;48.858;8.252;2023-03-01T16:49:36;41.88;;;17.10;;
46597;SDS011;32318;48.858;8.252;2023-03-01T16:57:37;42.63;;;15.80;;
46597;SDS011;32318;48.858;8.252;2023-03-01T17:05:39;38.13;;;15.52;;
46597;SDS011;32318;48.858;8.252;2023-03-01T17:13:40;30.75;;;12.30;;
46597;SDS011;32318;48.858;8.252;2023-03-01T17:21:41;37.47;;;14.93;;
46597;SDS011;32318;48.858;8.252;2023-03-01T17:29:41;37.53;;;16.08;;
46597;SDS011;32318;48.858;8.252;2023-03-01T17:37:41;41.22;;;15.73;;
46597;SDS011;32318;48.858;8.252;2023-03-01T17:45:45;39.78;;;17.40;;
46597;SDS011;32318;48.858;8.252;2023-03-01T17:53:50;46.05;;;17.17;;
46597;SDS011;32318;48.858;8.252;2023-03-01T18:01:50;38.65;;;16.00;;
46597;SDS011;32318;48.858;8.252;2023-03-01T18:09:51;46.42;;;16.88;;
46597;SDS011;32318;48.858;8.252;2023-03-01T18:17:52;45.15;;;16.58;;
46597;SDS011;32318;48.858;8.252;2023-03-01T18:25:56;37.90;;;15.43;;
46597;SDS011;32318;48.858;8.252;2023-03-01T18:34:04;42.35;;;18.33;;
46597;SDS011;32318;48.858;8.252;2023-03-01T18:42:04;45.83;;;18.05;;
46597;SDS011;32318;48.858;8.252;2023-03-01T18:50:05;52.13;;;18.23;;
46597;SDS011;32318;48.858;8.252;2023-03-01T18:58:05;50.58;;;19.60;;
46597;SDS011;32318;48.858;8.252;2023-03-01T19:06:06;50.60;;;18.40;;
46597;SDS011;32318;48.858;8.252;2023-03-01T19:14:06;46.75;;;18.58;;
46597;SDS011;32318;48.858;8.252;2023-03-01T19:22:07;44.83;;;18.65;;
46597;SDS011;32318;48.858;8.252;2023-03-01T19:30:08;47.97;;;20.52;;
46597;SDS011;32318;48.858;8.252;2023-03-01T19:38:08;53.42;;;24.20;;
46597;SDS011;32318;48.858;8.252;2023-03-01T19:46:09;44.17;;;19.98;;
46597;SDS011;32318;48.858;8.252;2023-03-01T19:54:10;47.55;;;19.95;;
46597;SDS011;32318;48.858;8.252;2023-03-01T20:02:11;55.40;;;19.15;;
46597;SDS011;32318;48.858;8.252;2023-03-01T20:10:11;49.35;;;18.00;;
46597;SDS011;32318;48.858;8.252;2023-03-01T20:18:12;54.20;;;18.98;;
46597;SDS011;32318;48.858;8.252;2023-03-01T20:26:14;49.47;;;18.50;;
46597;SDS011;32318;48.858;8.252;2023-03-01T20:34:18;43.65;;;18.45;;
46597;SDS011;32318;48.858;8.252;2023-03-01T20:42:18;47.75;;;17.65;;
46597;SDS011;32318;48.858;8.252;2023-03-01T20:50:18;56.67;;;15.13;;
46597;SDS011;32318;48.858;8.252;2023-03-01T20:58:19;42.95;;;15.90;;
46597;SDS011;32318;48.858;8.252;2023-03-01T21:06:19;53.33;;;17.80;;
46597;SDS011;32318;48.858;8.252;2023-03-01T21:14:19;49.38;;;18.15;;
46597;SDS011;32318;48.858;8.252;2023-03-01T21:22:20;45.50;;;16.48;;
46597;SDS011;32318;48.858;8.252;2023-03-01T21:30:20;45.58;;;16.40;;
46597;SDS011;32318;48.858;8.252;2023-03-01T21:38:21;42.70;;;16.42;;
46597;SDS011;32318;48.858;8.252;2023-03-01T21:46:22;46.92;;;15.13;;
46597;SDS011;32318;48.858;8.252;2023-03-01T21:54:24;40.47;;;11.95;;
46597;SDS011;32318;48.858;8.252;2023-03-01T22:02:24;41.63;;;15.77;;
46597;SDS011;32318;48.858;8.252;2023-03-01T22:10:24;38.55;;;13.40;;
46597;SDS011;32318;48.858;8.252;2023-03-01T22:18:31;40.25;;;13.20;;
46597;SDS011;32318;48.858;8.252;2023-03-01T22:26:35;33.22;;;12.45;;
46597;SDS011;32318;48.858;8.252;2023-03-01T22:34:57;43.13;;;17.73;;
46597;SDS011;32318;48.858;8.252;2023-03-01T22:43:05;43.90;;;16.88;;
46597;SDS011;32318;48.858;8.252;2023-03-01T22:51:06;49.00;;;17.83;;
46597;SDS011;32318;48.858;8.252;2023-03-01T22:59:07;53.35;;;18.08;;
46597;SDS011;32318;48.858;8.252;2023-03-01T23:07:09;51.03;;;17.10;;
46597;SDS011;32318;48.858;8.252;2023-03-01T23:15:09;49.22;;;17.92;;
46597;SDS011;32318;48.858;8.252;2023-03-01T23:23:11;45.25;;;17.67;;
46597;SDS011;32318;48.858;8.252;2023-03-01T23:31:14;45.47;;;18.00;;
46597;SDS011;32318;48.858;8.252;2023-03-01T23:39:15;46.08;;;17.33;;
46597;SDS011;32318;48.858;8.252;2023-03-01T23:47:15;43.92;;;14.40;;
46597;SDS011;32318;48.858;8.252;2023-03-01T23:55:15;45.30;;;18.38;;
